sensor_id;sensor_type;location;lat;lon;timestamp;temperature;humidity
16060;DHT22;8134;49.552;7.632;2022-08-19T06:52:56;21.60;99.90
16060;DHT22;8134;49.552;7.632;2022-08-19T06:55:21;21.60;99.90
16060;DHT22;8134;49.552;7.632;2022-08-19T06:57:47;21.70;99.90
16060;DHT22;8134;49.552;7.632;2022-08-19T07:00:13;21.70;99.90
16060;DHT22;8134;49.552;7.632;2022-08-19T07:02:40;21.80;99.90
16060;DHT22;8134;49.552;7.632;2022-08-19T07:05:06;21.80;99.90
16060;DHT22;8134;49.552;7.632;2022-08-19T07:07:31;21.80;99.90
16060;DHT22;8134;49.552;7.632;2022-08-19T07:09:57;21.90;99.90
16060;DHT22;8134;49.552;7.632;2022-08-19T07:12:23;21.90;99.90
16060;DHT22;8134;49.552;7.632;2022-08-19T07:14:49;21.90;99.90
16060;DHT22;8134;49.552;7.632;2022-08-19T07:17:15;22.00;99.90
16060;DHT22;8134;49.552;7.632;2022-08-19T07:19:41;22.00;99.90
16060;DHT22;8134;49.552;7.632;2022-08-19T07:22:09;22.00;99.90
16060;DHT22;8134;49.552;7.632;2022-08-19T07:24:36;22.10;99.90
16060;DHT22;8134;49.552;7.632;2022-08-19T07:27:03;22.10;99.90
16060;DHT22;8134;49.552;7.632;2022-08-19T07:29:30;22.10;99.90
16060;DHT22;8134;49.552;7.632;2022-08-19T07:31:58;22.10;99.90
16060;DHT22;8134;49.552;7.632;2022-08-19T07:34:24;22.10;99.90
16060;DHT22;8134;49.552;7.632;2022-08-19T07:36:50;22.10;99.90
16060;DHT22;8134;49.552;7.632;2022-08-19T07:39:18;22.20;99.90
16060;DHT22;8134;49.552;7.632;2022-08-19T07:41:45;22.20;99.90
16060;DHT22;8134;49.552;7.632;2022-08-19T07:44:10;22.30;99.90
16060;DHT22;8134;49.552;7.632;2022-08-19T07:46:38;22.30;99.90
16060;DHT22;8134;49.552;7.632;2022-08-19T07:49:05;22.30;99.90
16060;DHT22;8134;49.552;7.632;2022-08-19T07:51:31;22.40;99.90
16060;DHT22;8134;49.552;7.632;2022-08-19T07:53:56;22.40;99.90
16060;DHT22;8134;49.552;7.632;2022-08-19T07:56:22;22.40;99.60
16060;DHT22;8134;49.552;7.632;2022-08-19T07:58:49;22.40;99.40
16060;DHT22;8134;49.552;7.632;2022-08-19T08:01:17;22.40;99.60
16060;DHT22;8134;49.552;7.632;2022-08-19T08:03:44;22.40;99.40
16060;DHT22;8134;49.552;7.632;2022-08-19T08:06:28;22.40;99.30
16060;DHT22;8134;49.552;7.632;2022-08-19T08:09:13;22.50;99.80
16060;DHT22;8134;49.552;7.632;2022-08-19T08:14:19;22.60;99.20
16060;DHT22;8134;49.552;7.632;2022-08-19T08:16:46;22.70;99.20
16060;DHT22;8134;49.552;7.632;2022-08-19T08:19:12;22.80;99.30
16060;DHT22;8134;49.552;7.632;2022-08-19T08:21:40;22.90;99.20
16060;DHT22;8134;49.552;7.632;2022-08-19T08:24:06;23.00;98.70
16060;DHT22;8134;49.552;7.632;2022-08-19T08:26:32;23.10;98.30
16060;DHT22;8134;49.552;7.632;2022-08-19T08:28:57;23.20;97.90
16060;DHT22;8134;49.552;7.632;2022-08-19T08:31:23;23.30;98.50
16060;DHT22;8134;49.552;7.632;2022-08-19T08:33:48;23.40;97.10
16060;DHT22;8134;49.552;7.632;2022-08-19T08:36:14;23.40;96.50
16060;DHT22;8134;49.552;7.632;2022-08-19T08:38:40;23.40;95.90
16060;DHT22;8134;49.552;7.632;2022-08-19T08:41:16;23.40;96.10
16060;DHT22;8134;49.552;7.632;2022-08-19T08:43:45;23.40;96.50
16060;DHT22;8134;49.552;7.632;2022-08-19T08:46:29;23.40;96.10
16060;DHT22;8134;49.552;7.632;2022-08-19T08:51:42;23.50;94.90
16060;DHT22;8134;49.552;7.632;2022-08-19T08:54:10;23.50;95.20
16060;DHT22;8134;49.552;7.632;2022-08-19T08:56:37;23.50;94.20
16060;DHT22;8134;49.552;7.632;2022-08-19T08:59:05;23.50;95.00
16060;DHT22;8134;49.552;7.632;2022-08-19T09:01:33;23.50;93.20
16060;DHT22;8134;49.552;7.632;2022-08-19T09:03:59;23.50;94.10
16060;DHT22;8134;49.552;7.632;2022-08-19T09:06:28;23.50;92.70
16060;DHT22;8134;49.552;7.632;2022-08-19T09:14:14;23.60;92.60
16060;DHT22;8134;49.552;7.632;2022-08-19T09:16:42;23.70;92.90
16060;DHT22;8134;49.552;7.632;2022-08-19T09:19:08;23.80;92.50
16060;DHT22;8134;49.552;7.632;2022-08-19T09:21:33;23.90;92.50
16060;DHT22;8134;49.552;7.632;2022-08-19T09:24:00;23.90;92.50
16060;DHT22;8134;49.552;7.632;2022-08-19T09:26:26;23.90;91.90
16060;DHT22;8134;49.552;7.632;2022-08-19T09:28:52;24.00;92.20
16060;DHT22;8134;49.552;7.632;2022-08-19T09:31:19;24.00;91.70
16060;DHT22;8134;49.552;7.632;2022-08-19T09:33:45;24.00;91.80
16060;DHT22;8134;49.552;7.632;2022-08-19T09:36:13;24.10;92.30
16060;DHT22;8134;49.552;7.632;2022-08-19T09:38:39;24.20;91.80
16060;DHT22;8134;49.552;7.632;2022-08-19T09:41:10;24.30;91.50
16060;DHT22;8134;49.552;7.632;2022-08-19T09:43:37;24.30;90.70
16060;DHT22;8134;49.552;7.632;2022-08-19T09:46:03;24.40;90.60
16060;DHT22;8134;49.552;7.632;2022-08-19T09:48:32;24.40;90.90
16060;DHT22;8134;49.552;7.632;2022-08-19T09:51:13;24.40;91.20
16060;DHT22;8134;49.552;7.632;2022-08-19T09:53:42;24.40;91.10
16060;DHT22;8134;49.552;7.632;2022-08-19T09:56:08;24.40;90.60
16060;DHT22;8134;49.552;7.632;2022-08-19T09:58:35;24.40;90.50
16060;DHT22;8134;49.552;7.632;2022-08-19T10:01:01;24.40;90.10
16060;DHT22;8134;49.552;7.632;2022-08-19T10:03:27;24.40;89.40
16060;DHT22;8134;49.552;7.632;2022-08-19T10:05:53;24.40;88.10
16060;DHT22;8134;49.552;7.632;2022-08-19T10:08:30;24.50;87.80
16060;DHT22;8134;49.552;7.632;2022-08-19T10:10:56;24.60;88.80
16060;DHT22;8134;49.552;7.632;2022-08-19T10:13:23;24.60;87.10
16060;DHT22;8134;49.552;7.632;2022-08-19T10:15:50;24.70;88.30
16060;DHT22;8134;49.552;7.632;2022-08-19T10:18:17;24.80;86.40
16060;DHT22;8134;49.552;7.632;2022-08-19T10:20:43;24.80;85.00
16060;DHT22;8134;49.552;7.632;2022-08-19T10:23:10;24.90;84.40
16060;DHT22;8134;49.552;7.632;2022-08-19T10:25:36;25.00;84.60
16060;DHT22;8134;49.552;7.632;2022-08-19T10:28:02;25.00;84.70
16060;DHT22;8134;49.552;7.632;2022-08-19T10:30:28;25.10;83.40
16060;DHT22;8134;49.552;7.632;2022-08-19T10:32:54;25.10;80.90
16060;DHT22;8134;49.552;7.632;2022-08-19T10:35:19;25.30;80.90
16060;DHT22;8134;49.552;7.632;2022-08-19T10:37:45;25.30;82.70
16060;DHT22;8134;49.552;7.632;2022-08-19T10:40:11;25.40;80.40
16060;DHT22;8134;49.552;7.632;2022-08-19T10:42:37;25.50;80.60
16060;DHT22;8134;49.552;7.632;2022-08-19T10:45:03;25.50;79.30
16060;DHT22;8134;49.552;7.632;2022-08-19T10:47:29;25.50;80.70
16060;DHT22;8134;49.552;7.632;2022-08-19T10:49:55;25.50;79.80
16060;DHT22;8134;49.552;7.632;2022-08-19T10:52:43;25.50;81.10
16060;DHT22;8134;49.552;7.632;2022-08-19T10:55:09;25.70;78.40
16060;DHT22;8134;49.552;7.632;2022-08-19T10:57:53;25.70;77.00
16060;DHT22;8134;49.552;7.632;2022-08-19T11:00:19;25.80;77.10
16060;DHT22;8134;49.552;7.632;2022-08-19T11:02:45;25.70;79.20
16060;DHT22;8134;49.552;7.632;2022-08-19T11:05:11;25.80;77.50
16060;DHT22;8134;49.552;7.632;2022-08-19T11:07:38;25.90;77.00
16060;DHT22;8134;49.552;7.632;2022-08-19T11:10:04;26.00;77.20
16060;DHT22;8134;49.552;7.632;2022-08-19T11:12:30;26.10;76.40
16060;DHT22;8134;49.552;7.632;2022-08-19T11:14:55;26.20;76.30
16060;DHT22;8134;49.552;7.632;2022-08-19T11:17:21;26.10;77.00
16060;DHT22;8134;49.552;7.632;2022-08-19T11:19:48;26.10;76.90
16060;DHT22;8134;49.552;7.632;2022-08-19T11:22:14;26.00;75.40
16060;DHT22;8134;49.552;7.632;2022-08-19T11:24:40;26.10;77.20
16060;DHT22;8134;49.552;7.632;2022-08-19T11:27:06;26.10;76.70
16060;DHT22;8134;49.552;7.632;2022-08-19T11:29:32;26.20;77.50
16060;DHT22;8134;49.552;7.632;2022-08-19T11:31:59;26.20;77.40
16060;DHT22;8134;49.552;7.632;2022-08-19T11:34:28;26.30;74.60
16060;DHT22;8134;49.552;7.632;2022-08-19T11:36:54;26.30;75.70
16060;DHT22;8134;49.552;7.632;2022-08-19T11:39:23;26.20;74.20
16060;DHT22;8134;49.552;7.632;2022-08-19T11:41:49;26.30;75.20
16060;DHT22;8134;49.552;7.632;2022-08-19T11:44:14;26.40;74.60
16060;DHT22;8134;49.552;7.632;2022-08-19T11:46:40;26.50;73.20
16060;DHT22;8134;49.552;7.632;2022-08-19T11:49:06;26.60;73.40
16060;DHT22;8134;49.552;7.632;2022-08-19T11:51:33;26.60;74.40
16060;DHT22;8134;49.552;7.632;2022-08-19T11:53:59;26.70;74.40
16060;DHT22;8134;49.552;7.632;2022-08-19T11:56:25;26.80;74.30
16060;DHT22;8134;49.552;7.632;2022-08-19T11:58:51;26.80;73.20
16060;DHT22;8134;49.552;7.632;2022-08-19T12:01:18;26.80;73.40
16060;DHT22;8134;49.552;7.632;2022-08-19T12:03:44;26.80;72.20
16060;DHT22;8134;49.552;7.632;2022-08-19T12:06:12;26.70;75.20
16060;DHT22;8134;49.552;7.632;2022-08-19T12:08:39;26.60;72.60
16060;DHT22;8134;49.552;7.632;2022-08-19T12:11:05;26.60;70.90
16060;DHT22;8134;49.552;7.632;2022-08-19T12:13:33;26.50;71.10
16060;DHT22;8134;49.552;7.632;2022-08-19T12:15:59;26.60;71.90
16060;DHT22;8134;49.552;7.632;2022-08-19T12:18:25;26.80;74.00
16060;DHT22;8134;49.552;7.632;2022-08-19T12:20:51;26.90;74.30
16060;DHT22;8134;49.552;7.632;2022-08-19T12:23:17;27.00;73.60
16060;DHT22;8134;49.552;7.632;2022-08-19T12:25:43;27.00;73.00
16060;DHT22;8134;49.552;7.632;2022-08-19T12:28:15;26.90;73.30
16060;DHT22;8134;49.552;7.632;2022-08-19T12:30:41;26.90;71.60
16060;DHT22;8134;49.552;7.632;2022-08-19T12:33:07;26.80;71.50
16060;DHT22;8134;49.552;7.632;2022-08-19T12:35:33;26.80;73.40
16060;DHT22;8134;49.552;7.632;2022-08-19T12:37:58;26.90;70.90
16060;DHT22;8134;49.552;7.632;2022-08-19T12:40:26;27.10;72.00
16060;DHT22;8134;49.552;7.632;2022-08-19T12:42:52;27.20;72.90
16060;DHT22;8134;49.552;7.632;2022-08-19T12:45:18;27.20;70.60
16060;DHT22;8134;49.552;7.632;2022-08-19T12:47:44;27.40;70.70
16060;DHT22;8134;49.552;7.632;2022-08-19T12:50:11;27.40;71.10
16060;DHT22;8134;49.552;7.632;2022-08-19T12:52:37;27.60;69.30
16060;DHT22;8134;49.552;7.632;2022-08-19T12:55:03;27.70;70.50
16060;DHT22;8134;49.552;7.632;2022-08-19T12:57:30;27.60;69.90
16060;DHT22;8134;49.552;7.632;2022-08-19T12:59:58;27.60;70.20
16060;DHT22;8134;49.552;7.632;2022-08-19T13:02:23;27.50;68.90
16060;DHT22;8134;49.552;7.632;2022-08-19T13:04:49;27.40;71.30
16060;DHT22;8134;49.552;7.632;2022-08-19T13:07:14;27.40;71.40
16060;DHT22;8134;49.552;7.632;2022-08-19T13:09:40;27.30;70.10
16060;DHT22;8134;49.552;7.632;2022-08-19T13:12:07;27.20;69.90
16060;DHT22;8134;49.552;7.632;2022-08-19T13:14:38;27.30;71.50
16060;DHT22;8134;49.552;7.632;2022-08-19T13:17:05;27.40;71.60
16060;DHT22;8134;49.552;7.632;2022-08-19T13:19:31;27.50;71.80
16060;DHT22;8134;49.552;7.632;2022-08-19T13:21:56;27.70;70.00
16060;DHT22;8134;49.552;7.632;2022-08-19T13:24:23;27.90;68.50
16060;DHT22;8134;49.552;7.632;2022-08-19T13:26:48;28.00;66.20
16060;DHT22;8134;49.552;7.632;2022-08-19T13:29:14;28.20;67.10
16060;DHT22;8134;49.552;7.632;2022-08-19T13:31:58;28.20;65.40
16060;DHT22;8134;49.552;7.632;2022-08-19T13:34:42;28.20;65.40
16060;DHT22;8134;49.552;7.632;2022-08-19T13:37:08;28.30;67.40
16060;DHT22;8134;49.552;7.632;2022-08-19T13:39:34;28.20;65.00
16060;DHT22;8134;49.552;7.632;2022-08-19T13:42:00;28.20;63.80
16060;DHT22;8134;49.552;7.632;2022-08-19T13:44:26;28.20;62.90
16060;DHT22;8134;49.552;7.632;2022-08-19T13:46:55;28.30;64.10
16060;DHT22;8134;49.552;7.632;2022-08-19T13:49:25;28.20;63.70
16060;DHT22;8134;49.552;7.632;2022-08-19T13:51:52;28.10;65.90
16060;DHT22;8134;49.552;7.632;2022-08-19T13:54:18;28.10;64.20
16060;DHT22;8134;49.552;7.632;2022-08-19T13:56:44;28.10;61.80
16060;DHT22;8134;49.552;7.632;2022-08-19T13:59:10;28.10;63.10
16060;DHT22;8134;49.552;7.632;2022-08-19T14:01:36;28.10;62.30
16060;DHT22;8134;49.552;7.632;2022-08-19T14:04:02;28.10;64.50
16060;DHT22;8134;49.552;7.632;2022-08-19T14:06:28;28.00;65.50
16060;DHT22;8134;49.552;7.632;2022-08-19T15:19:25;27.80;68.40
16060;DHT22;8134;49.552;7.632;2022-08-19T15:21:51;27.70;68.30
16060;DHT22;8134;49.552;7.632;2022-08-19T15:24:20;27.70;67.00
16060;DHT22;8134;49.552;7.632;2022-08-19T15:26:45;27.70;65.30
16060;DHT22;8134;49.552;7.632;2022-08-19T15:29:11;27.80;64.70
16060;DHT22;8134;49.552;7.632;2022-08-19T15:31:41;27.90;64.50
16060;DHT22;8134;49.552;7.632;2022-08-19T15:34:08;27.90;63.80
16060;DHT22;8134;49.552;7.632;2022-08-19T15:36:34;28.00;64.90
16060;DHT22;8134;49.552;7.632;2022-08-19T15:39:03;28.00;62.60
16060;DHT22;8134;49.552;7.632;2022-08-19T15:41:29;28.10;63.50
16060;DHT22;8134;49.552;7.632;2022-08-19T15:43:56;28.20;64.10
16060;DHT22;8134;49.552;7.632;2022-08-19T15:46:25;28.20;63.10
16060;DHT22;8134;49.552;7.632;2022-08-19T15:48:51;28.40;62.80
16060;DHT22;8134;49.552;7.632;2022-08-19T15:51:17;28.60;62.70
16060;DHT22;8134;49.552;7.632;2022-08-19T15:53:43;28.70;60.40
16060;DHT22;8134;49.552;7.632;2022-08-19T15:56:09;28.90;62.70
16060;DHT22;8134;49.552;7.632;2022-08-19T15:58:34;29.00;62.60
16060;DHT22;8134;49.552;7.632;2022-08-19T16:01:19;29.10;62.20
16060;DHT22;8134;49.552;7.632;2022-08-19T16:04:03;29.20;59.80
16060;DHT22;8134;49.552;7.632;2022-08-19T16:06:49;29.10;59.40
16060;DHT22;8134;49.552;7.632;2022-08-19T16:09:15;29.10;59.00
16060;DHT22;8134;49.552;7.632;2022-08-19T16:11:41;29.10;60.70
16060;DHT22;8134;49.552;7.632;2022-08-19T16:14:07;29.30;61.50
16060;DHT22;8134;49.552;7.632;2022-08-19T16:16:34;29.30;62.20
16060;DHT22;8134;49.552;7.632;2022-08-19T16:19:00;29.30;59.30
16060;DHT22;8134;49.552;7.632;2022-08-19T16:21:27;29.40;60.60
16060;DHT22;8134;49.552;7.632;2022-08-19T16:23:56;29.40;61.50
16060;DHT22;8134;49.552;7.632;2022-08-19T16:26:22;29.30;60.70
16060;DHT22;8134;49.552;7.632;2022-08-19T16:28:49;29.30;60.70
16060;DHT22;8134;49.552;7.632;2022-08-19T16:31:15;29.30;60.50
16060;DHT22;8134;49.552;7.632;2022-08-19T16:33:41;29.30;60.40
16060;DHT22;8134;49.552;7.632;2022-08-19T16:36:06;29.20;59.70
16060;DHT22;8134;49.552;7.632;2022-08-19T16:38:33;29.20;59.50
16060;DHT22;8134;49.552;7.632;2022-08-19T16:41:10;29.20;58.90
16060;DHT22;8134;49.552;7.632;2022-08-19T16:43:43;29.10;59.00
16060;DHT22;8134;49.552;7.632;2022-08-19T16:46:09;29.00;59.40
16060;DHT22;8134;49.552;7.632;2022-08-19T16:48:35;28.90;60.40
16060;DHT22;8134;49.552;7.632;2022-08-19T16:51:10;28.90;59.80
16060;DHT22;8134;49.552;7.632;2022-08-19T16:53:36;28.80;60.00
16060;DHT22;8134;49.552;7.632;2022-08-19T16:56:02;28.70;59.10
16060;DHT22;8134;49.552;7.632;2022-08-19T16:58:28;28.70;58.90
16060;DHT22;8134;49.552;7.632;2022-08-19T17:00:54;28.60;60.00
16060;DHT22;8134;49.552;7.632;2022-08-19T17:03:21;28.50;59.30
16060;DHT22;8134;49.552;7.632;2022-08-19T17:05:49;28.50;58.70
16060;DHT22;8134;49.552;7.632;2022-08-19T17:08:15;28.40;60.30
16060;DHT22;8134;49.552;7.632;2022-08-19T17:10:42;28.40;59.80
16060;DHT22;8134;49.552;7.632;2022-08-19T17:13:08;28.30;61.00
16060;DHT22;8134;49.552;7.632;2022-08-19T17:15:33;28.20;60.80
16060;DHT22;8134;49.552;7.632;2022-08-19T17:17:59;28.10;61.30
16060;DHT22;8134;49.552;7.632;2022-08-19T17:20:25;28.10;62.20
16060;DHT22;8134;49.552;7.632;2022-08-19T17:22:50;28.00;61.40
16060;DHT22;8134;49.552;7.632;2022-08-19T17:25:16;28.00;62.10
16060;DHT22;8134;49.552;7.632;2022-08-19T17:27:41;27.90;62.60
16060;DHT22;8134;49.552;7.632;2022-08-19T17:30:07;27.80;62.90
16060;DHT22;8134;49.552;7.632;2022-08-19T17:32:33;27.80;64.50
16060;DHT22;8134;49.552;7.632;2022-08-19T17:35:00;27.70;64.60
16060;DHT22;8134;49.552;7.632;2022-08-19T17:37:25;27.60;65.20
16060;DHT22;8134;49.552;7.632;2022-08-19T17:39:52;27.50;64.00
16060;DHT22;8134;49.552;7.632;2022-08-19T17:42:17;27.50;64.90
16060;DHT22;8134;49.552;7.632;2022-08-19T17:44:44;27.50;64.70
16060;DHT22;8134;49.552;7.632;2022-08-19T17:47:09;27.40;64.60
16060;DHT22;8134;49.552;7.632;2022-08-19T17:49:36;27.40;65.00
16060;DHT22;8134;49.552;7.632;2022-08-19T17:52:02;27.30;65.10
16060;DHT22;8134;49.552;7.632;2022-08-19T17:54:28;27.30;65.80
16060;DHT22;8134;49.552;7.632;2022-08-19T17:56:53;27.20;66.30
16060;DHT22;8134;49.552;7.632;2022-08-19T17:59:19;27.20;67.30
16060;DHT22;8134;49.552;7.632;2022-08-19T18:01:45;27.20;66.40
16060;DHT22;8134;49.552;7.632;2022-08-19T18:04:11;27.20;67.40
16060;DHT22;8134;49.552;7.632;2022-08-19T18:06:37;27.10;67.20
16060;DHT22;8134;49.552;7.632;2022-08-19T18:09:03;27.00;66.60
16060;DHT22;8134;49.552;7.632;2022-08-19T18:11:29;27.00;67.40
16060;DHT22;8134;49.552;7.632;2022-08-19T18:13:55;26.90;67.30
16060;DHT22;8134;49.552;7.632;2022-08-19T18:16:20;26.90;67.40
16060;DHT22;8134;49.552;7.632;2022-08-19T18:18:46;26.90;67.80
16060;DHT22;8134;49.552;7.632;2022-08-19T18:21:11;26.90;68.40
16060;DHT22;8134;49.552;7.632;2022-08-19T18:23:37;26.90;69.60
16060;DHT22;8134;49.552;7.632;2022-08-19T18:26:03;26.80;69.70
16060;DHT22;8134;49.552;7.632;2022-08-19T18:28:29;26.70;70.40
16060;DHT22;8134;49.552;7.632;2022-08-19T18:30:54;26.60;70.50
16060;DHT22;8134;49.552;7.632;2022-08-19T18:33:20;26.60;70.80
16060;DHT22;8134;49.552;7.632;2022-08-19T18:35:47;26.60;71.50
16060;DHT22;8134;49.552;7.632;2022-08-19T18:38:13;26.50;72.40
16060;DHT22;8134;49.552;7.632;2022-08-19T18:40:58;26.40;73.10
16060;DHT22;8134;49.552;7.632;2022-08-19T18:43:48;26.30;74.00
16060;DHT22;8134;49.552;7.632;2022-08-19T18:46:33;26.20;74.10
16060;DHT22;8134;49.552;7.632;2022-08-19T18:49:21;26.10;73.70
16060;DHT22;8134;49.552;7.632;2022-08-19T18:51:49;26.00;74.00
16060;DHT22;8134;49.552;7.632;2022-08-19T18:54:16;26.00;74.00
16060;DHT22;8134;49.552;7.632;2022-08-19T18:56:42;26.00;72.90
16060;DHT22;8134;49.552;7.632;2022-08-19T18:59:10;26.00;74.30
16060;DHT22;8134;49.552;7.632;2022-08-19T19:01:39;26.00;74.20
16060;DHT22;8134;49.552;7.632;2022-08-19T19:04:18;26.00;74.00
16060;DHT22;8134;49.552;7.632;2022-08-19T19:06:44;25.90;74.60
16060;DHT22;8134;49.552;7.632;2022-08-19T19:09:11;25.80;75.40
16060;DHT22;8134;49.552;7.632;2022-08-19T19:11:39;25.80;75.50
16060;DHT22;8134;49.552;7.632;2022-08-19T19:14:08;25.80;75.60
16060;DHT22;8134;49.552;7.632;2022-08-19T19:16:39;25.80;75.90
16060;DHT22;8134;49.552;7.632;2022-08-19T19:19:08;25.80;76.40
16060;DHT22;8134;49.552;7.632;2022-08-19T19:21:38;25.90;76.30
16060;DHT22;8134;49.552;7.632;2022-08-19T19:24:07;25.90;76.60
16060;DHT22;8134;49.552;7.632;2022-08-19T19:26:33;25.90;76.50
16060;DHT22;8134;49.552;7.632;2022-08-19T19:29:01;26.00;76.10
16060;DHT22;8134;49.552;7.632;2022-08-19T19:31:29;26.00;76.50
16060;DHT22;8134;49.552;7.632;2022-08-19T19:33:58;26.00;76.50
16060;DHT22;8134;49.552;7.632;2022-08-19T19:36:25;26.00;76.70
16060;DHT22;8134;49.552;7.632;2022-08-19T19:38:51;26.00;76.40
16060;DHT22;8134;49.552;7.632;2022-08-19T19:41:19;25.90;76.40
16060;DHT22;8134;49.552;7.632;2022-08-19T19:44:05;25.90;76.60
16060;DHT22;8134;49.552;7.632;2022-08-19T19:46:34;25.90;76.70
16060;DHT22;8134;49.552;7.632;2022-08-19T19:49:00;25.90;76.90
16060;DHT22;8134;49.552;7.632;2022-08-19T19:51:27;25.90;77.50
16060;DHT22;8134;49.552;7.632;2022-08-19T19:53:53;25.90;77.30
16060;DHT22;8134;49.552;7.632;2022-08-19T19:56:20;25.80;77.40
16060;DHT22;8134;49.552;7.632;2022-08-19T19:58:47;25.80;78.00
16060;DHT22;8134;49.552;7.632;2022-08-19T20:01:15;25.70;78.10
16060;DHT22;8134;49.552;7.632;2022-08-19T20:03:42;25.70;78.70
16060;DHT22;8134;49.552;7.632;2022-08-19T20:06:08;25.70;78.40
16060;DHT22;8134;49.552;7.632;2022-08-19T20:08:35;25.70;78.90
16060;DHT22;8134;49.552;7.632;2022-08-19T20:11:33;25.70;78.90
16060;DHT22;8134;49.552;7.632;2022-08-19T20:14:01;25.70;79.00
16060;DHT22;8134;49.552;7.632;2022-08-19T20:16:27;25.70;79.20
16060;DHT22;8134;49.552;7.632;2022-08-19T20:18:54;25.60;79.40
16060;DHT22;8134;49.552;7.632;2022-08-19T20:21:39;25.60;79.40
16060;DHT22;8134;49.552;7.632;2022-08-19T20:24:08;25.60;79.80
16060;DHT22;8134;49.552;7.632;2022-08-19T20:26:35;25.60;79.90
16060;DHT22;8134;49.552;7.632;2022-08-19T20:29:01;25.60;80.00
16060;DHT22;8134;49.552;7.632;2022-08-19T20:31:27;25.60;80.10
16060;DHT22;8134;49.552;7.632;2022-08-19T20:33:54;25.60;80.80
16060;DHT22;8134;49.552;7.632;2022-08-19T20:36:39;25.60;80.40
16060;DHT22;8134;49.552;7.632;2022-08-19T20:39:06;25.50;81.00
16060;DHT22;8134;49.552;7.632;2022-08-19T20:41:33;25.50;80.20
16060;DHT22;8134;49.552;7.632;2022-08-19T20:44:01;25.50;80.80
16060;DHT22;8134;49.552;7.632;2022-08-19T20:46:28;25.50;80.80
16060;DHT22;8134;49.552;7.632;2022-08-19T20:48:54;25.50;80.90
16060;DHT22;8134;49.552;7.632;2022-08-19T20:51:29;25.40;81.10
16060;DHT22;8134;49.552;7.632;2022-08-19T20:53:58;25.40;81.20
16060;DHT22;8134;49.552;7.632;2022-08-19T20:56:25;25.40;81.60
16060;DHT22;8134;49.552;7.632;2022-08-19T20:58:51;25.40;81.40
16060;DHT22;8134;49.552;7.632;2022-08-19T21:01:17;25.30;81.20
16060;DHT22;8134;49.552;7.632;2022-08-19T21:03:42;25.30;82.20
16060;DHT22;8134;49.552;7.632;2022-08-19T21:06:09;25.30;82.20
16060;DHT22;8134;49.552;7.632;2022-08-19T21:08:36;25.30;82.70
16060;DHT22;8134;49.552;7.632;2022-08-19T21:11:04;25.30;81.90
16060;DHT22;8134;49.552;7.632;2022-08-19T21:13:31;25.30;82.60
16060;DHT22;8134;49.552;7.632;2022-08-19T21:15:56;25.30;82.00
16060;DHT22;8134;49.552;7.632;2022-08-19T21:18:23;25.30;81.50
16060;DHT22;8134;49.552;7.632;2022-08-19T21:20:51;25.20;82.40
16060;DHT22;8134;49.552;7.632;2022-08-19T21:23:22;25.20;82.50
16060;DHT22;8134;49.552;7.632;2022-08-19T21:25:49;25.10;83.30
16060;DHT22;8134;49.552;7.632;2022-08-19T21:28:15;25.10;83.80
16060;DHT22;8134;49.552;7.632;2022-08-19T21:30:41;25.10;83.30
16060;DHT22;8134;49.552;7.632;2022-08-19T21:33:06;25.10;83.20
16060;DHT22;8134;49.552;7.632;2022-08-19T21:35:33;25.10;83.80
16060;DHT22;8134;49.552;7.632;2022-08-19T21:38:00;25.10;83.90
16060;DHT22;8134;49.552;7.632;2022-08-19T21:40:26;25.10;83.70
16060;DHT22;8134;49.552;7.632;2022-08-19T21:42:52;25.00;84.20
16060;DHT22;8134;49.552;7.632;2022-08-19T21:45:18;25.00;84.10
16060;DHT22;8134;49.552;7.632;2022-08-19T21:47:45;25.00;84.50
16060;DHT22;8134;49.552;7.632;2022-08-19T21:50:11;25.00;84.00
16060;DHT22;8134;49.552;7.632;2022-08-19T21:52:37;25.00;84.60
16060;DHT22;8134;49.552;7.632;2022-08-19T21:55:04;25.00;84.90
16060;DHT22;8134;49.552;7.632;2022-08-19T21:57:29;25.00;84.50
16060;DHT22;8134;49.552;7.632;2022-08-19T21:59:55;24.90;84.90
16060;DHT22;8134;49.552;7.632;2022-08-19T22:02:21;24.90;85.20
16060;DHT22;8134;49.552;7.632;2022-08-19T22:04:48;24.90;85.00
16060;DHT22;8134;49.552;7.632;2022-08-19T22:07:14;24.90;85.30
16060;DHT22;8134;49.552;7.632;2022-08-19T22:09:42;24.80;85.40
16060;DHT22;8134;49.552;7.632;2022-08-19T22:12:09;24.80;85.70
16060;DHT22;8134;49.552;7.632;2022-08-19T22:14:36;24.80;85.00
16060;DHT22;8134;49.552;7.632;2022-08-19T22:17:01;24.70;85.80
16060;DHT22;8134;49.552;7.632;2022-08-19T22:19:27;24.70;85.40
16060;DHT22;8134;49.552;7.632;2022-08-19T22:21:54;24.70;86.20
16060;DHT22;8134;49.552;7.632;2022-08-19T22:24:19;24.70;85.80
16060;DHT22;8134;49.552;7.632;2022-08-19T22:26:46;24.70;86.10
16060;DHT22;8134;49.552;7.632;2022-08-19T22:29:13;24.70;85.80
16060;DHT22;8134;49.552;7.632;2022-08-19T22:31:41;24.60;86.10
16060;DHT22;8134;49.552;7.632;2022-08-19T22:34:08;24.60;86.60
16060;DHT22;8134;49.552;7.632;2022-08-19T22:36:35;24.60;87.10
16060;DHT22;8134;49.552;7.632;2022-08-19T22:39:02;24.60;87.30
16060;DHT22;8134;49.552;7.632;2022-08-19T22:41:29;24.50;87.30
16060;DHT22;8134;49.552;7.632;2022-08-19T22:43:55;24.50;86.90
16060;DHT22;8134;49.552;7.632;2022-08-19T22:46:22;24.50;87.20
16060;DHT22;8134;49.552;7.632;2022-08-19T22:48:48;24.50;88.10
16060;DHT22;8134;49.552;7.632;2022-08-19T22:51:14;24.50;87.70
16060;DHT22;8134;49.552;7.632;2022-08-19T22:53:59;24.50;88.30
16060;DHT22;8134;49.552;7.632;2022-08-19T22:56:26;24.50;88.80
16060;DHT22;8134;49.552;7.632;2022-08-19T22:58:52;24.40;88.20
16060;DHT22;8134;49.552;7.632;2022-08-19T23:01:20;24.30;88.50
16060;DHT22;8134;49.552;7.632;2022-08-19T23:03:47;24.30;88.90
16060;DHT22;8134;49.552;7.632;2022-08-19T23:06:14;24.30;89.00
16060;DHT22;8134;49.552;7.632;2022-08-19T23:08:41;24.20;89.30
16060;DHT22;8134;49.552;7.632;2022-08-19T23:11:08;24.10;90.10
16060;DHT22;8134;49.552;7.632;2022-08-19T23:13:36;24.00;90.00
16060;DHT22;8134;49.552;7.632;2022-08-19T23:16:02;23.90;90.00
16060;DHT22;8134;49.552;7.632;2022-08-19T23:18:28;23.80;90.10
16060;DHT22;8134;49.552;7.632;2022-08-19T23:20:55;23.70;90.40
16060;DHT22;8134;49.552;7.632;2022-08-19T23:23:22;23.60;90.60
